Genesis Valiant — WDG9348 — position and weather

sailwx.info

Track history (hours):
 
Tides and Currents Weather Stations Pressure Air Temp Water Temp Dewpoint Dewpoint Depression Visibility Wind Speed Wind Dir Waves Ship Positions

Genesis Valiant

Owner: Genesis Marine, LLC, Houston, TX. More information available from US FCC via Universal Licensing System and Coast Guard Vessel Documentation Center.

Last reported at 2017-Sep-19 20:31 UTC. Time now 2017-Sep-19 20:30 UTC.
Position N 39°51' W 075°15'.

Length 30 m; draft 5.7 m.

Type: Towing. MMSI: 338495000.

Date/timePositionNaut miles runAvg speedWind from/ knotsBaromVisibWave heightAir tempDewpointWater temp
2017-Sep-19 20:31N 39°51' W 075°15'0 0.0
2017-Sep-19 20:00N 39°51' W 075°15'0 0.0
2017-Sep-19 19:30N 39°51' W 075°15'0 0.0
2017-Sep-19 19:00N 39°51' W 075°15'0 0.0
2017-Sep-19 18:30N 39°51' W 075°15'0 0.0
2017-Sep-19 18:00N 39°51' W 075°15'0 0.0
2017-Sep-19 17:30N 39°51' W 075°15'0 0.0
2017-Sep-19 17:00N 39°51' W 075°15'0 0.0
2017-Sep-19 16:30N 39°51' W 075°15'0 0.0
2017-Sep-19 16:00N 39°51' W 075°15'0 0.0
2017-Sep-19 15:30N 39°51' W 075°15'0 0.0
2017-Sep-19 15:00N 39°51' W 075°15'0 0.0
2017-Sep-19 14:30N 39°51' W 075°15'0 0.0
2017-Sep-19 14:00N 39°51' W 075°15'0 0.0
2017-Sep-19 13:30N 39°51' W 075°15'0 0.0
2017-Sep-19 13:00N 39°51' W 075°15'0 0.0
2017-Sep-19 12:30N 39°51' W 075°15'0 0.0
2017-Sep-19 12:00N 39°51' W 075°15'0 0.0
2017-Sep-19 11:30N 39°51' W 075°15'0 0.0
2017-Sep-19 11:00N 39°51' W 075°15'0 0.0
2017-Sep-19 10:30N 39°51' W 075°15'0 0.0
2017-Sep-19 10:00N 39°51' W 075°15'0 0.0
2017-Sep-19 09:30N 39°51' W 075°15'0 0.0
2017-Sep-19 09:00N 39°51' W 075°15'0 0.0
2017-Sep-19 08:30N 39°51' W 075°15'0 0.0
2017-Sep-19 08:00N 39°51' W 075°15'0 0.0
2017-Sep-19 07:30N 39°51' W 075°15'0 0.0
2017-Sep-19 07:00N 39°51' W 075°15'0 0.0
2017-Sep-19 06:30N 39°51' W 075°15'0 0.0
2017-Sep-19 06:00N 39°51' W 075°15'0 0.0
2017-Sep-19 05:30N 39°51' W 075°15'0 0.0
2017-Sep-19 05:00N 39°51' W 075°15'1 1.9
2017-Sep-19 04:30N 39°51' W 075°16'3 5.7
2017-Sep-19 04:01N 39°51' W 075°20'3 6.4
2017-Sep-19 03:30N 39°49' W 075°23'4 7.5
2017-Sep-19 03:00N 39°47' W 075°28'4 7.7
2017-Sep-19 02:30N 39°44' W 075°30'5 9.4
2017-Sep-19 02:00N 39°39' W 075°33'4 7.7
2017-Sep-19 01:30N 39°36' W 075°34'2 4.4
2017-Sep-19 01:00N 39°34' W 075°35'4 8.6
2017-Sep-19 00:30N 39°33' W 075°40'5 9.3
2017-Sep-19 00:00N 39°32' W 075°46'4 8.4
2017-Sep-18 23:30N 39°32' W 075°51'510.1
2017-Sep-18 23:00N 39°29' W 075°57'5 9.5
2017-Sep-18 22:30N 39°26' W 076°01'5 9.7
2017-Sep-18 22:00N 39°23' W 076°06'5 9.9
2017-Sep-18 21:30N 39°20' W 076°12'5 9.4
2017-Sep-18 21:00N 39°16' W 076°14'5 8.9
2017-Sep-18 20:30N 39°12' W 076°16'4 8.2
2017-Sep-18 20:00N 39°09' W 076°20'4 8.9
2017-Sep-18 19:30N 39°11' W 076°26'4 9.0
2017-Sep-18 19:00N 39°12' W 076°31'3 5.7
2017-Sep-18 18:30N 39°13' W 076°34'1 1.2
2017-Sep-18 18:00N 39°13' W 076°35'0 0.0
2017-Sep-18 17:30N 39°13' W 076°35'0 0.0
2017-Sep-18 17:00N 39°13' W 076°35'0 0.0
2017-Sep-18 16:30N 39°13' W 076°35'0 0.0
2017-Sep-18 16:00N 39°13' W 076°35'0 0.0
2017-Sep-18 15:30N 39°13' W 076°35'0 0.0
2017-Sep-18 15:00N 39°13' W 076°35'0 0.0
2017-Sep-18 14:30N 39°13' W 076°35'0 0.0
2017-Sep-18 14:00N 39°13' W 076°35'0 0.0
2017-Sep-18 13:30N 39°13' W 076°35'0 0.0
2017-Sep-18 12:57N 39°13' W 076°35'0 0.0
2017-Sep-18 12:30N 39°13' W 076°35'0 0.0
2017-Sep-18 12:00N 39°13' W 076°35'0 0.0
2017-Sep-18 11:27N 39°13' W 076°35'0 0.0
2017-Sep-18 10:57N 39°13' W 076°35'0 0.0
2017-Sep-18 10:27N 39°13' W 076°35'0 0.0
2017-Sep-18 10:00N 39°13' W 076°35'0 0.0
2017-Sep-18 09:30N 39°13' W 076°35'0 0.0
2017-Sep-18 09:00N 39°13' W 076°35'0 0.0
2017-Sep-18 08:27N 39°13' W 076°35'0 0.0
2017-Sep-18 08:00N 39°13' W 076°35'0 0.0
2017-Sep-18 07:30N 39°13' W 076°35'0 0.0
2017-Sep-18 07:00N 39°13' W 076°35'0 0.0
2017-Sep-18 06:30N 39°13' W 076°35'0 0.0
2017-Sep-18 06:00N 39°13' W 076°35'0 0.0
2017-Sep-18 05:30N 39°13' W 076°35'0 0.0
2017-Sep-18 05:00N 39°13' W 076°35'1 1.7
2017-Sep-18 04:30N 39°13' W 076°34'3 5.9
2017-Sep-18 04:00N 39°12' W 076°30'4 8.9
2017-Sep-18 03:30N 39°10' W 076°25'4 8.7
2017-Sep-18 03:01N 39°09' W 076°20'4 8.9
2017-Sep-18 02:30N 39°12' W 076°16'5 9.5
2017-Sep-18 02:00N 39°16' W 076°14'5 9.2
2017-Sep-18 01:31N 39°20' W 076°11'5 9.3
2017-Sep-18 01:00N 39°23' W 076°06'4 8.5
2017-Sep-18 00:30N 39°25' W 076°01'4 8.5
2017-Sep-18 00:00N 39°28' W 075°58'4 7.8
2017-Sep-17 23:30N 39°31' W 075°54'3 7.0
2017-Sep-17 23:00N 39°32' W 075°49'3 6.0
2017-Sep-17 22:30N 39°32' W 075°45'3 6.9
2017-Sep-17 22:00N 39°33' W 075°41'3 6.8
2017-Sep-17 21:30N 39°33' W 075°37'3 5.9
2017-Sep-17 21:00N 39°34' W 075°33'3 6.4
2017-Sep-17 20:30N 39°37' W 075°35'4 7.4
2017-Sep-17 20:00N 39°40' W 075°32'4 7.7
2017-Sep-17 19:30N 39°44' W 075°30'4 7.4
2017-Sep-17 19:00N 39°47' W 075°28'4 7.3
2017-Sep-17 18:30N 39°49' W 075°24'4 7.7
2017-Sep-17 18:00N 39°51' W 075°20'4 7.0
2017-Sep-17 17:30N 39°51' W 075°15'3 6.7
2017-Sep-17 17:00N 39°53' W 075°11'2 4.8
2017-Sep-17 16:30N 39°54' W 075°08'0 0.2
2017-Sep-17 16:00N 39°54' W 075°08'0 0.0
2017-Sep-17 15:28N 39°54' W 075°08'0 0.0
2017-Sep-17 14:58N 39°54' W 075°08'0 0.0
2017-Sep-17 14:28N 39°54' W 075°08'0 0.0
2017-Sep-17 13:59N 39°54' W 075°08'0 0.0
2017-Sep-17 13:28N 39°54' W 075°08'0 0.0
2017-Sep-17 12:58N 39°54' W 075°08'0 0.0
2017-Sep-17 12:28N 39°54' W 075°08'0 0.0
2017-Sep-17 11:58N 39°54' W 075°08'0 0.0
2017-Sep-17 11:28N 39°54' W 075°08'0 0.0
2017-Sep-17 10:58N 39°54' W 075°08'0 0.0
2017-Sep-17 10:28N 39°54' W 075°08'0 0.0
2017-Sep-17 09:58N 39°54' W 075°08'0 0.0
2017-Sep-17 09:28N 39°54' W 075°08'0 0.0
2017-Sep-17 08:58N 39°54' W 075°08'0 0.0
2017-Sep-17 08:28N 39°54' W 075°08'0 0.0
2017-Sep-17 07:58N 39°54' W 075°08'0 0.0
2017-Sep-17 07:29N 39°54' W 075°08'0 0.0
2017-Sep-17 06:58N 39°54' W 075°08'0 0.0
2017-Sep-17 06:28N 39°54' W 075°08'0 0.0
2017-Sep-17 05:58N 39°54' W 075°08'0 0.0
2017-Sep-17 05:28N 39°54' W 075°08'0 0.0
2017-Sep-17 04:58N 39°54' W 075°08'0 0.0
2017-Sep-17 04:28N 39°54' W 075°08'0 0.0
2017-Sep-17 03:52N 39°54' W 075°08'0 0.0
2017-Sep-17 03:28N 39°54' W 075°08'0 0.0
2017-Sep-17 02:58N 39°54' W 075°08'0 0.0
2017-Sep-17 02:28N 39°54' W 075°08'0 0.0
2017-Sep-17 01:58N 39°54' W 075°08'0 0.0
2017-Sep-17 01:28N 39°54' W 075°08'0 0.0
2017-Sep-17 00:58N 39°54' W 075°08'0 0.0
2017-Sep-17 00:28N 39°54' W 075°08'0 0.0
2017-Sep-16 23:58N 39°54' W 075°08'0 0.0
2017-Sep-16 23:28N 39°54' W 075°08'0 0.0
2017-Sep-16 22:58N 39°54' W 075°08'0 0.0
2017-Sep-16 22:28N 39°54' W 075°08'0 0.0
2017-Sep-16 21:58N 39°54' W 075°08'0 0.0
2017-Sep-16 21:28N 39°54' W 075°08'0 0.0
2017-Sep-16 20:58N 39°54' W 075°08'0 0.0
2017-Sep-16 20:28N 39°54' W 075°08'0 0.0
2017-Sep-16 19:58N 39°54' W 075°08'0 0.0
2017-Sep-16 19:25N 39°54' W 075°08'0 0.0
2017-Sep-16 18:58N 39°54' W 075°08'0 0.0
2017-Sep-16 18:28N 39°54' W 075°08'0 0.0
2017-Sep-16 17:58N 39°54' W 075°08'0 0.0
2017-Sep-16 17:28N 39°54' W 075°08'0 0.0
2017-Sep-16 16:58N 39°54' W 075°08'0 0.0
2017-Sep-16 16:28N 39°54' W 075°08'0 0.0
2017-Sep-16 15:58N 39°54' W 075°08'0 0.0
2017-Sep-16 15:28N 39°54' W 075°08'0 0.0
2017-Sep-16 14:58N 39°54' W 075°08'0 0.0
2017-Sep-16 14:28N 39°54' W 075°08'0 0.0
2017-Sep-16 13:58N 39°54' W 075°08'0 0.0
2017-Sep-16 13:28N 39°54' W 075°08'0 0.0
2017-Sep-16 12:55N 39°54' W 075°08'0 0.0
2017-Sep-16 12:28N 39°54' W 075°08'0 0.0
2017-Sep-16 11:58N 39°54' W 075°08'0 0.0
2017-Sep-16 11:28N 39°54' W 075°08'0 0.0
2017-Sep-16 10:58N 39°54' W 075°08'0 0.0
2017-Sep-16 10:31N 39°54' W 075°08'1 2.2
2017-Sep-16 10:00N 39°53' W 075°09'1 1.3
2017-Sep-16 09:30N 39°53' W 075°10'0 0.0
2017-Sep-16 09:00N 39°53' W 075°10'0 0.0
2017-Sep-16 08:30N 39°53' W 075°10'0 0.0
2017-Sep-16 08:00N 39°53' W 075°10'0 0.0
2017-Sep-16 07:30N 39°53' W 075°10'0 0.0
2017-Sep-16 07:00N 39°53' W 075°10'1 1.1
2017-Sep-16 06:30N 39°53' W 075°11'4 7.2
2017-Sep-16 06:00N 39°51' W 075°15'4 7.3
2017-Sep-16 05:31N 39°51' W 075°20'3 6.8
2017-Sep-16 05:00N 39°49' W 075°23'4 7.4
2017-Sep-16 04:30N 39°47' W 075°27'3 5.6
2017-Sep-16 04:01N 39°45' W 075°30'3 6.8
2017-Sep-16 03:30N 39°42' W 075°31'3 6.4
2017-Sep-16 03:01N 39°39' W 075°33'3 5.6
2017-Sep-16 02:31N 39°36' W 075°34'3 5.2
2017-Sep-16 02:01N 39°34' W 075°34'3 6.8
2017-Sep-16 01:31N 39°33' W 075°38'3 6.6
2017-Sep-16 01:01N 39°33' W 075°43'3 6.6
2017-Sep-16 00:31N 39°32' W 075°47'3 5.8
2017-Sep-16 00:01N 39°32' W 075°51'3 6.7
2017-Sep-15 23:31N 39°30' W 075°54'4 7.7
2017-Sep-15 23:00N 39°28' W 075°58'4 8.3
2017-Sep-15 22:30N 39°25' W 076°02'4 8.4
2017-Sep-15 22:00N 39°23' W 076°07'4 8.6
2017-Sep-15 21:30N 39°20' W 076°11'4 8.5
2017-Sep-15 21:00N 39°17' W 076°14'5 8.6
2017-Sep-15 20:28N 39°12' W 076°16'4 8.8
2017-Sep-15 20:00N 39°09' W 076°19'4 7.6
2017-Sep-15 19:30N 39°10' W 076°24'4 8.2
2017-Sep-15 19:00N 39°11' W 076°29'4 8.0
2017-Sep-15 18:30N 39°14' W 076°33'1 1.5
2017-Sep-15 18:00N 39°14' W 076°34'0 0.0
2017-Sep-15 17:30N 39°14' W 076°34'0 0.0
2017-Sep-15 17:00N 39°14' W 076°34'0 0.0
2017-Sep-15 16:30N 39°14' W 076°34'0 0.0
2017-Sep-15 16:00N 39°14' W 076°34'0 0.0
2017-Sep-15 15:30N 39°14' W 076°34'0 0.0
2017-Sep-15 15:00N 39°14' W 076°34'0 0.0
2017-Sep-15 14:30N 39°14' W 076°34'0 0.0
2017-Sep-15 14:00N 39°14' W 076°34'0 0.0
2017-Sep-15 13:30N 39°14' W 076°34'0 0.0
2017-Sep-15 13:00N 39°14' W 076°34'0 0.0
2017-Sep-15 12:30N 39°14' W 076°34'0 0.0
2017-Sep-15 12:00N 39°14' W 076°34'0 0.0
2017-Sep-15 11:30N 39°14' W 076°34'0 0.0
2017-Sep-15 11:00N 39°14' W 076°34'0 0.0
2017-Sep-15 10:30N 39°14' W 076°34'0 0.0
2017-Sep-15 10:00N 39°14' W 076°34'0 0.0
2017-Sep-15 09:30N 39°14' W 076°34'0 0.0
2017-Sep-15 09:00N 39°14' W 076°34'0 0.0
2017-Sep-15 08:30N 39°14' W 076°34'0 0.0
2017-Sep-15 08:00N 39°14' W 076°34'1 2.5
2017-Sep-15 07:30N 39°14' W 076°32'3 6.8
2017-Sep-15 07:00N 39°12' W 076°29'4 7.3
2017-Sep-15 06:30N 39°10' W 076°24'4 8.0
2017-Sep-15 06:00N 39°09' W 076°20'4 7.6
2017-Sep-15 05:30N 39°12' W 076°16'4 7.7
2017-Sep-15 05:00N 39°15' W 076°14'4 8.1
2017-Sep-15 04:30N 39°19' W 076°13'4 8.2
2017-Sep-15 04:00N 39°22' W 076°09'4 8.4
2017-Sep-15 03:30N 39°24' W 076°04'4 8.5
2017-Sep-15 03:00N 39°26' W 075°60'5 9.1
2017-Sep-15 02:30N 39°30' W 075°56'4 8.9
2017-Sep-15 02:00N 39°32' W 075°51'4 8.6
2017-Sep-15 01:30N 39°32' W 075°45'5 9.3
2017-Sep-15 01:00N 39°33' W 075°39'5 9.2
2017-Sep-15 00:30N 39°34' W 075°33'3 6.3
2017-Sep-15 00:00N 39°37' W 075°35'3 5.9
2017-Sep-14 23:30N 39°39' W 075°33'4 7.3
2017-Sep-14 23:01N 39°43' W 075°31'4 7.1
2017-Sep-14 22:30N 39°46' W 075°29'3 6.6
2017-Sep-14 22:01N 39°48' W 075°26'3 6.8
2017-Sep-14 21:31N 39°50' W 075°22'3 6.3
2017-Sep-14 21:00N 39°51' W 075°18'3 6.9
2017-Sep-14 20:31N 39°52' W 075°14'4 8.0
2017-Sep-14 20:01N 39°53' W 075°09'1 1.4
2017-Sep-14 19:29N 39°54' W 075°08'0 0.0
2017-Sep-14 18:59N 39°54' W 075°08'0 0.0
2017-Sep-14 18:29N 39°54' W 075°08'0 0.0
2017-Sep-14 17:59N 39°54' W 075°08'0 0.0
2017-Sep-14 17:29N 39°54' W 075°08'0 0.0
2017-Sep-14 16:59N 39°54' W 075°08'0 0.0
2017-Sep-14 16:29N 39°54' W 075°08'0 0.0
2017-Sep-14 15:56N 39°54' W 075°08'0 0.0
2017-Sep-14 15:29N 39°54' W 075°08'0 0.0
2017-Sep-14 14:59N 39°54' W 075°08'0 0.0
2017-Sep-14 14:29N 39°54' W 075°08'0 0.0
2017-Sep-14 13:59N 39°54' W 075°08'0 0.0
2017-Sep-14 13:29N 39°54' W 075°08'0 0.0
2017-Sep-14 12:59N 39°54' W 075°08'0 0.0
2017-Sep-14 12:29N 39°54' W 075°08'0 0.0
2017-Sep-14 11:59N 39°54' W 075°08'0 0.0
2017-Sep-14 11:29N 39°54' W 075°08'0 0.0
2017-Sep-14 10:59N 39°54' W 075°08'0 0.0
2017-Sep-14 10:29N 39°54' W 075°08'0 0.0
2017-Sep-14 09:59N 39°54' W 075°08'0 0.0
2017-Sep-14 09:29N 39°54' W 075°08'0 0.0
2017-Sep-14 08:59N 39°54' W 075°08'0 0.0
2017-Sep-14 08:29N 39°54' W 075°08'0 0.0
2017-Sep-14 07:59N 39°54' W 075°08'0 0.0
2017-Sep-14 07:29N 39°54' W 075°08'0 0.0
2017-Sep-14 06:59N 39°54' W 075°08'0 0.0
2017-Sep-14 06:29N 39°54' W 075°08'0 0.0
2017-Sep-14 05:59N 39°54' W 075°08'0 0.0
2017-Sep-14 05:29N 39°54' W 075°08'0 0.0
2017-Sep-14 04:59N 39°54' W 075°08'0 0.0
2017-Sep-14 04:29N 39°54' W 075°08'0 0.0
2017-Sep-14 03:59N 39°54' W 075°08'0 0.0
2017-Sep-14 03:29N 39°54' W 075°08'0 0.0
2017-Sep-14 02:59N 39°54' W 075°08'0 0.0
2017-Sep-14 02:29N 39°54' W 075°08'0 0.0
2017-Sep-14 01:59N 39°54' W 075°08'0 0.0
2017-Sep-14 01:29N 39°54' W 075°08'0 0.0
2017-Sep-14 01:00N 39°54' W 075°08'1 2.6
2017-Sep-14 00:30N 39°53' W 075°10'0 0.6
2017-Sep-14 00:00N 39°53' W 075°10'0 0.0
2017-Sep-13 23:29N 39°53' W 075°10'0 0.0
2017-Sep-13 22:59N 39°53' W 075°10'0 0.0
2017-Sep-13 22:29N 39°53' W 075°10'0 0.0
2017-Sep-13 21:59N 39°53' W 075°10'0 0.0
2017-Sep-13 21:29N 39°53' W 075°10'0 0.0
2017-Sep-13 20:59N 39°53' W 075°10'0 0.0
2017-Sep-13 20:29N 39°53' W 075°10'0 0.0
2017-Sep-13 19:59N 39°53' W 075°10'0 0.0
2017-Sep-13 19:29N 39°53' W 075°10'0 0.3
2017-Sep-13 18:59N 39°53' W 075°10'0 0.1
2017-Sep-13 18:29N 39°53' W 075°10'1 1.2
2017-Sep-13 18:00N 39°53' W 075°11'1 1.1
2017-Sep-13 17:28N 39°53' W 075°10'0 0.0
2017-Sep-13 16:58N 39°53' W 075°10'0 0.0
2017-Sep-13 16:28N 39°53' W 075°10'0 0.1
2017-Sep-13 15:58N 39°53' W 075°10'0 0.1
2017-Sep-13 15:28N 39°53' W 075°10'0 0.1
2017-Sep-13 14:58N 39°53' W 075°10'0 0.0
2017-Sep-13 14:28N 39°53' W 075°10'0 0.0
2017-Sep-13 13:58N 39°53' W 075°10'0 0.0
2017-Sep-13 13:28N 39°53' W 075°10'0 0.1
2017-Sep-13 12:58N 39°53' W 075°10'0 0.3
2017-Sep-13 12:28N 39°53' W 075°10'0 0.1
2017-Sep-13 11:58N 39°53' W 075°10'0 0.0
2017-Sep-13 11:28N 39°53' W 075°10'0 0.0
2017-Sep-13 10:58N 39°53' W 075°10'0 0.0
2017-Sep-13 10:28N 39°53' W 075°10'0 0.0
2017-Sep-13 09:58N 39°53' W 075°10'0 0.0
2017-Sep-13 09:28N 39°53' W 075°10'0 0.0
2017-Sep-13 08:58N 39°53' W 075°10'0 0.0
2017-Sep-13 08:28N 39°53' W 075°10'0 0.0
2017-Sep-13 07:58N 39°53' W 075°10'0 0.0
2017-Sep-13 07:28N 39°53' W 075°10'0 0.1
2017-Sep-13 06:58N 39°53' W 075°10'0 0.3
2017-Sep-13 06:28N 39°53' W 075°10'0 0.0
2017-Sep-13 05:55N 39°53' W 075°10'0 0.0
2017-Sep-13 05:28N 39°53' W 075°10'0 0.0
2017-Sep-13 04:58N 39°53' W 075°10'0 0.0
2017-Sep-13 04:28N 39°53' W 075°10'0 0.0
2017-Sep-13 03:58N 39°53' W 075°10'0 0.0
2017-Sep-13 03:28N 39°53' W 075°10'0 0.0
2017-Sep-13 02:58N 39°53' W 075°10'0 0.0
2017-Sep-13 02:28N 39°53' W 075°10'0 0.0
2017-Sep-13 01:58N 39°53' W 075°10'3 5.4
2017-Sep-13 01:30N 39°52' W 075°13'4 7.6
2017-Sep-13 01:01N 39°51' W 075°18'4 7.6
2017-Sep-13 00:31N 39°50' W 075°22'4 8.3
2017-Sep-13 00:00N 39°47' W 075°27'4 8.6
2017-Sep-12 23:30N 39°44' W 075°30'4 8.8
2017-Sep-12 23:00N 39°40' W 075°32'4 7.9
2017-Sep-12 22:31N 39°36' W 075°34'1 2.9
2017-Sep-12 22:00N 39°34' W 075°34'1 2.5
2017-Sep-12 21:30N 39°35' W 075°36'0 0.0
2017-Sep-12 21:00N 39°35' W 075°36'0 0.0
2017-Sep-12 20:30N 39°35' W 075°36'0 0.0
2017-Sep-12 20:00N 39°35' W 075°36'0 0.0
2017-Sep-12 19:30N 39°35' W 075°36'0 0.0
2017-Sep-12 19:00N 39°35' W 075°36'0 0.0
2017-Sep-12 18:30N 39°35' W 075°36'0 0.0
2017-Sep-12 18:00N 39°35' W 075°36'0 0.0
2017-Sep-12 17:30N 39°35' W 075°36'0 0.0
2017-Sep-12 17:00N 39°35' W 075°36'0 0.0
2017-Sep-12 16:30N 39°35' W 075°36'0 0.0
2017-Sep-12 16:00N 39°35' W 075°36'0 0.0
2017-Sep-12 15:30N 39°35' W 075°36'0 0.0
2017-Sep-12 15:00N 39°35' W 075°36'0 0.0
2017-Sep-12 14:30N 39°35' W 075°36'0 0.0
2017-Sep-12 14:00N 39°35' W 075°36'0 0.0
2017-Sep-12 13:30N 39°35' W 075°36'0 0.0
2017-Sep-12 13:00N 39°35' W 075°36'0 0.0
2017-Sep-12 12:30N 39°35' W 075°36'0 0.0
2017-Sep-12 09:15N 39°35' W 075°36'0 0.0
2017-Sep-12 09:00N 39°35' W 075°36'0 0.0
2017-Sep-12 08:30N 39°35' W 075°36'0 0.0
2017-Sep-12 08:00N 39°35' W 075°36'0 0.0
2017-Sep-12 07:30N 39°35' W 075°36'0 0.0
2017-Sep-12 07:00N 39°35' W 075°36'0 0.0
2017-Sep-12 06:30N 39°35' W 075°36'0 0.0
2017-Sep-12 06:00N 39°35' W 075°36'0 0.0
2017-Sep-12 05:30N 39°35' W 075°36'0 0.0
2017-Sep-12 05:00N 39°35' W 075°36'0 0.0
2017-Sep-12 04:30N 39°35' W 075°36'0 0.0
2017-Sep-12 04:00N 39°35' W 075°36'0 0.0
2017-Sep-12 03:30N 39°35' W 075°36'0 0.0
2017-Sep-12 03:00N 39°35' W 075°36'0 0.0
2017-Sep-12 02:30N 39°35' W 075°36'0 0.0
2017-Sep-12 02:00N 39°35' W 075°36'0 0.0
2017-Sep-12 01:30N 39°35' W 075°36'0 0.0
2017-Sep-12 01:00N 39°35' W 075°36'0 0.0
2017-Sep-12 00:30N 39°35' W 075°36'0 0.0
2017-Sep-12 00:00N 39°35' W 075°36'0 0.0
2017-Sep-11 23:30N 39°35' W 075°36'0 0.5
2017-Sep-11 23:00N 39°35' W 075°35'3 5.3
2017-Sep-11 22:31N 39°33' W 075°33'0 0.1
2017-Sep-11 22:00N 39°33' W 075°33'0 0.5
2017-Sep-11 21:30N 39°33' W 075°33'0 0.2
2017-Sep-11 21:00N 39°33' W 075°33'0 0.1
2017-Sep-11 20:30N 39°33' W 075°33'0 0.0
2017-Sep-11 20:00N 39°33' W 075°33'0 0.0
2017-Sep-11 19:30N 39°33' W 075°33'0 0.0
2017-Sep-11 19:00N 39°33' W 075°33'0 0.0
2017-Sep-11 18:30N 39°33' W 075°33'0 0.0
2017-Sep-11 18:00N 39°33' W 075°33'0 0.0
2017-Sep-11 17:30N 39°33' W 075°33'0 0.0
2017-Sep-11 17:00N 39°33' W 075°33'1 2.9
2017-Sep-11 16:30N 39°34' W 075°33'3 6.3
2017-Sep-11 16:00N 39°37' W 075°35'4 7.5
2017-Sep-11 15:31N 39°40' W 075°32'4 8.6
2017-Sep-11 15:01N 39°44' W 075°30'4 8.5
2017-Sep-11 14:30N 39°48' W 075°26'4 8.9
2017-Sep-11 14:00N 39°50' W 075°22'4 8.3
2017-Sep-11 13:30N 39°51' W 075°16'1 1.9
2017-Sep-11 12:59N 39°51' W 075°15'0 0.0
2017-Sep-11 12:29N 39°51' W 075°15'0 0.0
2017-Sep-11 11:59N 39°51' W 075°15'0 0.0
2017-Sep-11 11:29N 39°51' W 075°15'0 0.0
2017-Sep-11 10:59N 39°51' W 075°15'0 0.0
2017-Sep-11 10:29N 39°51' W 075°15'0 0.0
2017-Sep-11 09:59N 39°51' W 075°15'0 0.0
2017-Sep-11 09:29N 39°51' W 075°15'0 0.0
2017-Sep-11 08:59N 39°51' W 075°15'0 0.0
2017-Sep-11 08:29N 39°51' W 075°15'0 0.0
2017-Sep-11 07:59N 39°51' W 075°15'0 0.0
2017-Sep-11 07:29N 39°51' W 075°15'0 0.0
2017-Sep-11 06:59N 39°51' W 075°15'0 0.0
2017-Sep-11 06:29N 39°51' W 075°15'0 0.0
2017-Sep-11 05:59N 39°51' W 075°15'0 0.0
2017-Sep-11 05:29N 39°51' W 075°15'0 0.0
2017-Sep-11 04:59N 39°51' W 075°15'0 0.0
2017-Sep-11 04:29N 39°51' W 075°15'0 0.0
2017-Sep-11 03:59N 39°51' W 075°15'0 0.0
2017-Sep-11 03:29N 39°51' W 075°15'0 0.0
2017-Sep-11 02:59N 39°51' W 075°15'0 0.0
2017-Sep-11 02:29N 39°51' W 075°15'0 0.0
2017-Sep-11 01:59N 39°51' W 075°15'0 0.0
2017-Sep-11 01:29N 39°51' W 075°15'0 0.0
2017-Sep-11 00:59N 39°51' W 075°15'0 0.0
2017-Sep-11 00:29N 39°51' W 075°15'0 0.0
2017-Sep-10 23:59N 39°51' W 075°15'0 0.0
2017-Sep-10 23:26N 39°51' W 075°15'0 0.0
2017-Sep-10 22:59N 39°51' W 075°15'0 0.0
2017-Sep-10 22:29N 39°51' W 075°15'0 0.0
2017-Sep-10 21:59N 39°51' W 075°15'0 0.0
2017-Sep-10 21:29N 39°51' W 075°15'0 0.0
2017-Sep-10 20:59N 39°51' W 075°15'0 0.0
2017-Sep-10 20:29N 39°51' W 075°15'0 0.0
2017-Sep-10 19:59N 39°51' W 075°15'0 0.0
2017-Sep-10 19:29N 39°51' W 075°15'0 0.0
2017-Sep-10 18:59N 39°51' W 075°15'0 0.0
2017-Sep-10 18:29N 39°51' W 075°15'0 0.0
2017-Sep-10 17:59N 39°51' W 075°15'0 0.0
2017-Sep-10 17:29N 39°51' W 075°15'0 0.0
2017-Sep-10 16:59N 39°51' W 075°15'0 0.0
2017-Sep-10 16:29N 39°51' W 075°15'0 0.0
2017-Sep-10 15:59N 39°51' W 075°15'0 0.0
2017-Sep-10 15:29N 39°51' W 075°15'0 0.0
2017-Sep-10 14:59N 39°51' W 075°15'0 0.0
2017-Sep-10 13:59N 39°51' W 075°15'0 0.0
2017-Sep-10 13:29N 39°51' W 075°15'0 0.0
2017-Sep-10 12:59N 39°51' W 075°15'0 0.0
2017-Sep-10 12:29N 39°51' W 075°15'0 0.0
2017-Sep-10 11:59N 39°51' W 075°15'0 0.0
2017-Sep-10 11:29N 39°51' W 075°15'0 0.0
2017-Sep-10 10:59N 39°51' W 075°15'0 0.0
2017-Sep-10 10:29N 39°51' W 075°15'0 0.0
2017-Sep-10 09:59N 39°51' W 075°15'0 0.0
2017-Sep-10 09:29N 39°51' W 075°15'0 0.0
2017-Sep-10 08:59N 39°51' W 075°15'0 0.0
2017-Sep-10 08:29N 39°51' W 075°15'0 0.0
2017-Sep-10 07:59N 39°51' W 075°15'0 0.0
2017-Sep-10 07:29N 39°51' W 075°15'0 0.0
2017-Sep-10 06:59N 39°51' W 075°15'0 0.0
2017-Sep-10 06:29N 39°51' W 075°15'0 0.0
2017-Sep-10 06:00N 39°51' W 075°15'1 1.3
2017-Sep-10 05:30N 39°51' W 075°14'3 5.1
2017-Sep-10 05:00N 39°53' W 075°12'3 5.6
2017-Sep-10 04:30N 39°54' W 075°08'0 0.3
2017-Sep-10 04:00N 39°54' W 075°08'0 0.0
2017-Sep-10 03:30N 39°54' W 075°08'0 0.0
2017-Sep-10 03:00N 39°54' W 075°08'0 0.0
2017-Sep-10 02:30N 39°54' W 075°08'0 0.0
2017-Sep-10 02:00N 39°54' W 075°08'0 0.0
2017-Sep-10 01:30N 39°54' W 075°08'0 0.0
2017-Sep-10 01:00N 39°54' W 075°08'0 0.0
2017-Sep-10 00:30N 39°54' W 075°08'0 0.0
2017-Sep-10 00:00N 39°54' W 075°08'0 0.0
2017-Sep-09 23:30N 39°54' W 075°08'0 0.0
2017-Sep-09 23:00N 39°54' W 075°08'0 0.0
2017-Sep-09 22:30N 39°54' W 075°08'0 0.0
2017-Sep-09 22:01N 39°54' W 075°08'0 0.0
2017-Sep-09 21:31N 39°54' W 075°08'0 0.0
2017-Sep-09 21:00N 39°54' W 075°08'0 0.0
2017-Sep-09 20:31N 39°54' W 075°08'  
Track history (hours):
 
Tides and Currents Weather Stations Pressure Air Temp Water Temp Dewpoint Dewpoint Depression Visibility Wind Speed Wind Dir Waves Ship Positions

Genesis Valiant

Owner: Genesis Marine, LLC, Houston, TX. More information available from US FCC via Universal Licensing System and Coast Guard Vessel Documentation Center.

Last reported at 2017-Sep-19 20:31 UTC. Time now 2017-Sep-19 20:30 UTC.
Position N 39°51' W 075°15'.

Length 30 m; draft 5.7 m.

Type: Towing. MMSI: 338495000.

Date/timePositionNaut miles runAvg speedWind from/ knotsBaromVisibWave heightAir tempDewpointWater temp
2017-Sep-19 20:31N 39°51' W 075°15'0 0.0
2017-Sep-19 20:00N 39°51' W 075°15'0 0.0
2017-Sep-19 19:30N 39°51' W 075°15'0 0.0
2017-Sep-19 19:00N 39°51' W 075°15'0 0.0
2017-Sep-19 18:30N 39°51' W 075°15'0 0.0
2017-Sep-19 18:00N 39°51' W 075°15'0 0.0
2017-Sep-19 17:30N 39°51' W 075°15'0 0.0
2017-Sep-19 17:00N 39°51' W 075°15'0 0.0
2017-Sep-19 16:30N 39°51' W 075°15'0 0.0
2017-Sep-19 16:00N 39°51' W 075°15'0 0.0
2017-Sep-19 15:30N 39°51' W 075°15'0 0.0
2017-Sep-19 15:00N 39°51' W 075°15'0 0.0
2017-Sep-19 14:30N 39°51' W 075°15'0 0.0
2017-Sep-19 14:00N 39°51' W 075°15'0 0.0
2017-Sep-19 13:30N 39°51' W 075°15'0 0.0
2017-Sep-19 13:00N 39°51' W 075°15'0 0.0
2017-Sep-19 12:30N 39°51' W 075°15'0 0.0
2017-Sep-19 12:00N 39°51' W 075°15'0 0.0
2017-Sep-19 11:30N 39°51' W 075°15'0 0.0
2017-Sep-19 11:00N 39°51' W 075°15'0 0.0
2017-Sep-19 10:30N 39°51' W 075°15'0 0.0
2017-Sep-19 10:00N 39°51' W 075°15'0 0.0
2017-Sep-19 09:30N 39°51' W 075°15'0 0.0
2017-Sep-19 09:00N 39°51' W 075°15'0 0.0
2017-Sep-19 08:30N 39°51' W 075°15'0 0.0
2017-Sep-19 08:00N 39°51' W 075°15'0 0.0
2017-Sep-19 07:30N 39°51' W 075°15'0 0.0
2017-Sep-19 07:00N 39°51' W 075°15'0 0.0
2017-Sep-19 06:30N 39°51' W 075°15'0 0.0
2017-Sep-19 06:00N 39°51' W 075°15'0 0.0
2017-Sep-19 05:30N 39°51' W 075°15'0 0.0
2017-Sep-19 05:00N 39°51' W 075°15'1 1.9
2017-Sep-19 04:30N 39°51' W 075°16'3 5.7
2017-Sep-19 04:01N 39°51' W 075°20'3 6.4
2017-Sep-19 03:30N 39°49' W 075°23'4 7.5
2017-Sep-19 03:00N 39°47' W 075°28'4 7.7
2017-Sep-19 02:30N 39°44' W 075°30'5 9.4
2017-Sep-19 02:00N 39°39' W 075°33'4 7.7
2017-Sep-19 01:30N 39°36' W 075°34'2 4.4
2017-Sep-19 01:00N 39°34' W 075°35'4 8.6
2017-Sep-19 00:30N 39°33' W 075°40'5 9.3
2017-Sep-19 00:00N 39°32' W 075°46'4 8.4
2017-Sep-18 23:30N 39°32' W 075°51'510.1
2017-Sep-18 23:00N 39°29' W 075°57'5 9.5
2017-Sep-18 22:30N 39°26' W 076°01'5 9.7
2017-Sep-18 22:00N 39°23' W 076°06'5 9.9
2017-Sep-18 21:30N 39°20' W 076°12'5 9.4
2017-Sep-18 21:00N 39°16' W 076°14'5 8.9
2017-Sep-18 20:30N 39°12' W 076°16'4 8.2
2017-Sep-18 20:00N 39°09' W 076°20'4 8.9
2017-Sep-18 19:30N 39°11' W 076°26'4 9.0
2017-Sep-18 19:00N 39°12' W 076°31'3 5.7
2017-Sep-18 18:30N 39°13' W 076°34'1 1.2
2017-Sep-18 18:00N 39°13' W 076°35'0 0.0
2017-Sep-18 17:30N 39°13' W 076°35'0 0.0
2017-Sep-18 17:00N 39°13' W 076°35'0 0.0
2017-Sep-18 16:30N 39°13' W 076°35'0 0.0
2017-Sep-18 16:00N 39°13' W 076°35'0 0.0
2017-Sep-18 15:30N 39°13' W 076°35'0 0.0
2017-Sep-18 15:00N 39°13' W 076°35'0 0.0
2017-Sep-18 14:30N 39°13' W 076°35'0 0.0
2017-Sep-18 14:00N 39°13' W 076°35'0 0.0
2017-Sep-18 13:30N 39°13' W 076°35'0 0.0
2017-Sep-18 12:57N 39°13' W 076°35'0 0.0
2017-Sep-18 12:30N 39°13' W 076°35'0 0.0
2017-Sep-18 12:00N 39°13' W 076°35'0 0.0
2017-Sep-18 11:27N 39°13' W 076°35'0 0.0
2017-Sep-18 10:57N 39°13' W 076°35'0 0.0
2017-Sep-18 10:27N 39°13' W 076°35'0 0.0
2017-Sep-18 10:00N 39°13' W 076°35'0 0.0
2017-Sep-18 09:30N 39°13' W 076°35'0 0.0
2017-Sep-18 09:00N 39°13' W 076°35'0 0.0
2017-Sep-18 08:27N 39°13' W 076°35'0 0.0
2017-Sep-18 08:00N 39°13' W 076°35'0 0.0
2017-Sep-18 07:30N 39°13' W 076°35'0 0.0
2017-Sep-18 07:00N 39°13' W 076°35'0 0.0
2017-Sep-18 06:30N 39°13' W 076°35'0 0.0
2017-Sep-18 06:00N 39°13' W 076°35'0 0.0
2017-Sep-18 05:30N 39°13' W 076°35'0 0.0
2017-Sep-18 05:00N 39°13' W 076°35'1 1.7
2017-Sep-18 04:30N 39°13' W 076°34'3 5.9
2017-Sep-18 04:00N 39°12' W 076°30'4 8.9
2017-Sep-18 03:30N 39°10' W 076°25'4 8.7
2017-Sep-18 03:01N 39°09' W 076°20'4 8.9
2017-Sep-18 02:30N 39°12' W 076°16'5 9.5
2017-Sep-18 02:00N 39°16' W 076°14'5 9.2
2017-Sep-18 01:31N 39°20' W 076°11'5 9.3
2017-Sep-18 01:00N 39°23' W 076°06'4 8.5
2017-Sep-18 00:30N 39°25' W 076°01'4 8.5
2017-Sep-18 00:00N 39°28' W 075°58'4 7.8
2017-Sep-17 23:30N 39°31' W 075°54'3 7.0
2017-Sep-17 23:00N 39°32' W 075°49'3 6.0
2017-Sep-17 22:30N 39°32' W 075°45'3 6.9
2017-Sep-17 22:00N 39°33' W 075°41'3 6.8
2017-Sep-17 21:30N 39°33' W 075°37'3 5.9
2017-Sep-17 21:00N 39°34' W 075°33'3 6.4
2017-Sep-17 20:30N 39°37' W 075°35'4 7.4
2017-Sep-17 20:00N 39°40' W 075°32'4 7.7
2017-Sep-17 19:30N 39°44' W 075°30'4 7.4
2017-Sep-17 19:00N 39°47' W 075°28'4 7.3
2017-Sep-17 18:30N 39°49' W 075°24'4 7.7
2017-Sep-17 18:00N 39°51' W 075°20'4 7.0
2017-Sep-17 17:30N 39°51' W 075°15'3 6.7
2017-Sep-17 17:00N 39°53' W 075°11'2 4.8
2017-Sep-17 16:30N 39°54' W 075°08'0 0.2
2017-Sep-17 16:00N 39°54' W 075°08'0 0.0
2017-Sep-17 15:28N 39°54' W 075°08'0 0.0
2017-Sep-17 14:58N 39°54' W 075°08'0 0.0
2017-Sep-17 14:28N 39°54' W 075°08'0 0.0
2017-Sep-17 13:59N 39°54' W 075°08'0 0.0
2017-Sep-17 13:28N 39°54' W 075°08'0 0.0
2017-Sep-17 12:58N 39°54' W 075°08'0 0.0
2017-Sep-17 12:28N 39°54' W 075°08'0 0.0
2017-Sep-17 11:58N 39°54' W 075°08'0 0.0
2017-Sep-17 11:28N 39°54' W 075°08'0 0.0
2017-Sep-17 10:58N 39°54' W 075°08'0 0.0
2017-Sep-17 10:28N 39°54' W 075°08'0 0.0
2017-Sep-17 09:58N 39°54' W 075°08'0 0.0
2017-Sep-17 09:28N 39°54' W 075°08'0 0.0
2017-Sep-17 08:58N 39°54' W 075°08'0 0.0
2017-Sep-17 08:28N 39°54' W 075°08'0 0.0
2017-Sep-17 07:58N 39°54' W 075°08'0 0.0
2017-Sep-17 07:29N 39°54' W 075°08'0 0.0
2017-Sep-17 06:58N 39°54' W 075°08'0 0.0
2017-Sep-17 06:28N 39°54' W 075°08'0 0.0
2017-Sep-17 05:58N 39°54' W 075°08'0 0.0
2017-Sep-17 05:28N 39°54' W 075°08'0 0.0
2017-Sep-17 04:58N 39°54' W 075°08'0 0.0
2017-Sep-17 04:28N 39°54' W 075°08'0 0.0
2017-Sep-17 03:52N 39°54' W 075°08'0 0.0
2017-Sep-17 03:28N 39°54' W 075°08'0 0.0
2017-Sep-17 02:58N 39°54' W 075°08'0 0.0
2017-Sep-17 02:28N 39°54' W 075°08'0 0.0
2017-Sep-17 01:58N 39°54' W 075°08'0 0.0
2017-Sep-17 01:28N 39°54' W 075°08'0 0.0
2017-Sep-17 00:58N 39°54' W 075°08'0 0.0
2017-Sep-17 00:28N 39°54' W 075°08'0 0.0
2017-Sep-16 23:58N 39°54' W 075°08'0 0.0
2017-Sep-16 23:28N 39°54' W 075°08'0 0.0
2017-Sep-16 22:58N 39°54' W 075°08'0 0.0
2017-Sep-16 22:28N 39°54' W 075°08'0 0.0
2017-Sep-16 21:58N 39°54' W 075°08'0 0.0
2017-Sep-16 21:28N 39°54' W 075°08'0 0.0
2017-Sep-16 20:58N 39°54' W 075°08'0 0.0
2017-Sep-16 20:28N 39°54' W 075°08'0 0.0
2017-Sep-16 19:58N 39°54' W 075°08'0 0.0
2017-Sep-16 19:25N 39°54' W 075°08'0 0.0
2017-Sep-16 18:58N 39°54' W 075°08'0 0.0
2017-Sep-16 18:28N 39°54' W 075°08'0 0.0
2017-Sep-16 17:58N 39°54' W 075°08'0 0.0
2017-Sep-16 17:28N 39°54' W 075°08'0 0.0
2017-Sep-16 16:58N 39°54' W 075°08'0 0.0
2017-Sep-16 16:28N 39°54' W 075°08'0 0.0
2017-Sep-16 15:58N 39°54' W 075°08'0 0.0
2017-Sep-16 15:28N 39°54' W 075°08'0 0.0
2017-Sep-16 14:58N 39°54' W 075°08'0 0.0
2017-Sep-16 14:28N 39°54' W 075°08'0 0.0
2017-Sep-16 13:58N 39°54' W 075°08'0 0.0
2017-Sep-16 13:28N 39°54' W 075°08'0 0.0
2017-Sep-16 12:55N 39°54' W 075°08'0 0.0
2017-Sep-16 12:28N 39°54' W 075°08'0 0.0
2017-Sep-16 11:58N 39°54' W 075°08'0 0.0
2017-Sep-16 11:28N 39°54' W 075°08'0 0.0
2017-Sep-16 10:58N 39°54' W 075°08'0 0.0
2017-Sep-16 10:31N 39°54' W 075°08'1 2.2
2017-Sep-16 10:00N 39°53' W 075°09'1 1.3
2017-Sep-16 09:30N 39°53' W 075°10'0 0.0
2017-Sep-16 09:00N 39°53' W 075°10'0 0.0
2017-Sep-16 08:30N 39°53' W 075°10'0 0.0
2017-Sep-16 08:00N 39°53' W 075°10'0 0.0
2017-Sep-16 07:30N 39°53' W 075°10'0 0.0
2017-Sep-16 07:00N 39°53' W 075°10'1 1.1
2017-Sep-16 06:30N 39°53' W 075°11'4 7.2
2017-Sep-16 06:00N 39°51' W 075°15'4 7.3
2017-Sep-16 05:31N 39°51' W 075°20'3 6.8
2017-Sep-16 05:00N 39°49' W 075°23'4 7.4
2017-Sep-16 04:30N 39°47' W 075°27'3 5.6
2017-Sep-16 04:01N 39°45' W 075°30'3 6.8
2017-Sep-16 03:30N 39°42' W 075°31'3 6.4
2017-Sep-16 03:01N 39°39' W 075°33'3 5.6
2017-Sep-16 02:31N 39°36' W 075°34'3 5.2
2017-Sep-16 02:01N 39°34' W 075°34'3 6.8
2017-Sep-16 01:31N 39°33' W 075°38'3 6.6
2017-Sep-16 01:01N 39°33' W 075°43'3 6.6
2017-Sep-16 00:31N 39°32' W 075°47'3 5.8
2017-Sep-16 00:01N 39°32' W 075°51'3 6.7
2017-Sep-15 23:31N 39°30' W 075°54'4 7.7
2017-Sep-15 23:00N 39°28' W 075°58'4 8.3
2017-Sep-15 22:30N 39°25' W 076°02'4 8.4
2017-Sep-15 22:00N 39°23' W 076°07'4 8.6
2017-Sep-15 21:30N 39°20' W 076°11'4 8.5
2017-Sep-15 21:00N 39°17' W 076°14'5 8.6
2017-Sep-15 20:28N 39°12' W 076°16'4 8.8
2017-Sep-15 20:00N 39°09' W 076°19'4 7.6
2017-Sep-15 19:30N 39°10' W 076°24'4 8.2
2017-Sep-15 19:00N 39°11' W 076°29'4 8.0
2017-Sep-15 18:30N 39°14' W 076°33'1 1.5
2017-Sep-15 18:00N 39°14' W 076°34'0 0.0
2017-Sep-15 17:30N 39°14' W 076°34'0 0.0
2017-Sep-15 17:00N 39°14' W 076°34'0 0.0
2017-Sep-15 16:30N 39°14' W 076°34'0 0.0
2017-Sep-15 16:00N 39°14' W 076°34'0 0.0
2017-Sep-15 15:30N 39°14' W 076°34'0 0.0
2017-Sep-15 15:00N 39°14' W 076°34'0 0.0
2017-Sep-15 14:30N 39°14' W 076°34'0 0.0
2017-Sep-15 14:00N 39°14' W 076°34'0 0.0
2017-Sep-15 13:30N 39°14' W 076°34'0 0.0
2017-Sep-15 13:00N 39°14' W 076°34'0 0.0
2017-Sep-15 12:30N 39°14' W 076°34'0 0.0
2017-Sep-15 12:00N 39°14' W 076°34'0 0.0
2017-Sep-15 11:30N 39°14' W 076°34'0 0.0
2017-Sep-15 11:00N 39°14' W 076°34'0 0.0
2017-Sep-15 10:30N 39°14' W 076°34'0 0.0
2017-Sep-15 10:00N 39°14' W 076°34'0 0.0
2017-Sep-15 09:30N 39°14' W 076°34'0 0.0
2017-Sep-15 09:00N 39°14' W 076°34'0 0.0
2017-Sep-15 08:30N 39°14' W 076°34'0 0.0
2017-Sep-15 08:00N 39°14' W 076°34'1 2.5
2017-Sep-15 07:30N 39°14' W 076°32'3 6.8
2017-Sep-15 07:00N 39°12' W 076°29'4 7.3
2017-Sep-15 06:30N 39°10' W 076°24'4 8.0
2017-Sep-15 06:00N 39°09' W 076°20'4 7.6
2017-Sep-15 05:30N 39°12' W 076°16'4 7.7
2017-Sep-15 05:00N 39°15' W 076°14'4 8.1
2017-Sep-15 04:30N 39°19' W 076°13'4 8.2
2017-Sep-15 04:00N 39°22' W 076°09'4 8.4
2017-Sep-15 03:30N 39°24' W 076°04'4 8.5
2017-Sep-15 03:00N 39°26' W 075°60'5 9.1
2017-Sep-15 02:30N 39°30' W 075°56'4 8.9
2017-Sep-15 02:00N 39°32' W 075°51'4 8.6
2017-Sep-15 01:30N 39°32' W 075°45'5 9.3
2017-Sep-15 01:00N 39°33' W 075°39'5 9.2
2017-Sep-15 00:30N 39°34' W 075°33'3 6.3
2017-Sep-15 00:00N 39°37' W 075°35'3 5.9
2017-Sep-14 23:30N 39°39' W 075°33'4 7.3
2017-Sep-14 23:01N 39°43' W 075°31'4 7.1
2017-Sep-14 22:30N 39°46' W 075°29'3 6.6
2017-Sep-14 22:01N 39°48' W 075°26'3 6.8
2017-Sep-14 21:31N 39°50' W 075°22'3 6.3
2017-Sep-14 21:00N 39°51' W 075°18'3 6.9
2017-Sep-14 20:31N 39°52' W 075°14'4 8.0
2017-Sep-14 20:01N 39°53' W 075°09'1 1.4
2017-Sep-14 19:29N 39°54' W 075°08'0 0.0
2017-Sep-14 18:59N 39°54' W 075°08'0 0.0
2017-Sep-14 18:29N 39°54' W 075°08'0 0.0
2017-Sep-14 17:59N 39°54' W 075°08'0 0.0
2017-Sep-14 17:29N 39°54' W 075°08'0 0.0
2017-Sep-14 16:59N 39°54' W 075°08'0 0.0
2017-Sep-14 16:29N 39°54' W 075°08'0 0.0
2017-Sep-14 15:56N 39°54' W 075°08'0 0.0
2017-Sep-14 15:29N 39°54' W 075°08'0 0.0
2017-Sep-14 14:59N 39°54' W 075°08'0 0.0
2017-Sep-14 14:29N 39°54' W 075°08'0 0.0
2017-Sep-14 13:59N 39°54' W 075°08'0 0.0
2017-Sep-14 13:29N 39°54' W 075°08'0 0.0
2017-Sep-14 12:59N 39°54' W 075°08'0 0.0
2017-Sep-14 12:29N 39°54' W 075°08'0 0.0
2017-Sep-14 11:59N 39°54' W 075°08'0 0.0
2017-Sep-14 11:29N 39°54' W 075°08'0 0.0
2017-Sep-14 10:59N 39°54' W 075°08'0 0.0
2017-Sep-14 10:29N 39°54' W 075°08'0 0.0
2017-Sep-14 09:59N 39°54' W 075°08'0 0.0
2017-Sep-14 09:29N 39°54' W 075°08'0 0.0
2017-Sep-14 08:59N 39°54' W 075°08'0 0.0
2017-Sep-14 08:29N 39°54' W 075°08'0 0.0
2017-Sep-14 07:59N 39°54' W 075°08'0 0.0
2017-Sep-14 07:29N 39°54' W 075°08'0 0.0
2017-Sep-14 06:59N 39°54' W 075°08'0 0.0
2017-Sep-14 06:29N 39°54' W 075°08'0 0.0
2017-Sep-14 05:59N 39°54' W 075°08'0 0.0
2017-Sep-14 05:29N 39°54' W 075°08'0 0.0
2017-Sep-14 04:59N 39°54' W 075°08'0 0.0
2017-Sep-14 04:29N 39°54' W 075°08'0 0.0
2017-Sep-14 03:59N 39°54' W 075°08'0 0.0
2017-Sep-14 03:29N 39°54' W 075°08'0 0.0
2017-Sep-14 02:59N 39°54' W 075°08'0 0.0
2017-Sep-14 02:29N 39°54' W 075°08'0 0.0
2017-Sep-14 01:59N 39°54' W 075°08'0 0.0
2017-Sep-14 01:29N 39°54' W 075°08'0 0.0
2017-Sep-14 01:00N 39°54' W 075°08'1 2.6
2017-Sep-14 00:30N 39°53' W 075°10'0 0.6
2017-Sep-14 00:00N 39°53' W 075°10'0 0.0
2017-Sep-13 23:29N 39°53' W 075°10'0 0.0
2017-Sep-13 22:59N 39°53' W 075°10'0 0.0
2017-Sep-13 22:29N 39°53' W 075°10'0 0.0
2017-Sep-13 21:59N 39°53' W 075°10'0 0.0
2017-Sep-13 21:29N 39°53' W 075°10'0 0.0
2017-Sep-13 20:59N 39°53' W 075°10'0 0.0
2017-Sep-13 20:29N 39°53' W 075°10'0 0.0
2017-Sep-13 19:59N 39°53' W 075°10'0 0.0
2017-Sep-13 19:29N 39°53' W 075°10'0 0.3
2017-Sep-13 18:59N 39°53' W 075°10'0 0.1
2017-Sep-13 18:29N 39°53' W 075°10'1 1.2
2017-Sep-13 18:00N 39°53' W 075°11'1 1.1
2017-Sep-13 17:28N 39°53' W 075°10'0 0.0
2017-Sep-13 16:58N 39°53' W 075°10'0 0.0
2017-Sep-13 16:28N 39°53' W 075°10'0 0.1
2017-Sep-13 15:58N 39°53' W 075°10'0 0.1
2017-Sep-13 15:28N 39°53' W 075°10'0 0.1
2017-Sep-13 14:58N 39°53' W 075°10'0 0.0
2017-Sep-13 14:28N 39°53' W 075°10'0 0.0
2017-Sep-13 13:58N 39°53' W 075°10'0 0.0
2017-Sep-13 13:28N 39°53' W 075°10'0 0.1
2017-Sep-13 12:58N 39°53' W 075°10'0 0.3
2017-Sep-13 12:28N 39°53' W 075°10'0 0.1
2017-Sep-13 11:58N 39°53' W 075°10'0 0.0
2017-Sep-13 11:28N 39°53' W 075°10'0 0.0
2017-Sep-13 10:58N 39°53' W 075°10'0 0.0
2017-Sep-13 10:28N 39°53' W 075°10'0 0.0
2017-Sep-13 09:58N 39°53' W 075°10'0 0.0
2017-Sep-13 09:28N 39°53' W 075°10'0 0.0
2017-Sep-13 08:58N 39°53' W 075°10'0 0.0
2017-Sep-13 08:28N 39°53' W 075°10'0 0.0
2017-Sep-13 07:58N 39°53' W 075°10'0 0.0
2017-Sep-13 07:28N 39°53' W 075°10'0 0.1
2017-Sep-13 06:58N 39°53' W 075°10'0 0.3
2017-Sep-13 06:28N 39°53' W 075°10'0 0.0
2017-Sep-13 05:55N 39°53' W 075°10'0 0.0
2017-Sep-13 05:28N 39°53' W 075°10'0 0.0
2017-Sep-13 04:58N 39°53' W 075°10'0 0.0
2017-Sep-13 04:28N 39°53' W 075°10'0 0.0
2017-Sep-13 03:58N 39°53' W 075°10'0 0.0
2017-Sep-13 03:28N 39°53' W 075°10'0 0.0
2017-Sep-13 02:58N 39°53' W 075°10'0 0.0
2017-Sep-13 02:28N 39°53' W 075°10'0 0.0
2017-Sep-13 01:58N 39°53' W 075°10'3 5.4
2017-Sep-13 01:30N 39°52' W 075°13'4 7.6
2017-Sep-13 01:01N 39°51' W 075°18'4 7.6
2017-Sep-13 00:31N 39°50' W 075°22'4 8.3
2017-Sep-13 00:00N 39°47' W 075°27'4 8.6
2017-Sep-12 23:30N 39°44' W 075°30'4 8.8
2017-Sep-12 23:00N 39°40' W 075°32'4 7.9
2017-Sep-12 22:31N 39°36' W 075°34'1 2.9
2017-Sep-12 22:00N 39°34' W 075°34'1 2.5
2017-Sep-12 21:30N 39°35' W 075°36'0 0.0
2017-Sep-12 21:00N 39°35' W 075°36'0 0.0
2017-Sep-12 20:30N 39°35' W 075°36'0 0.0
2017-Sep-12 20:00N 39°35' W 075°36'0 0.0
2017-Sep-12 19:30N 39°35' W 075°36'0 0.0
2017-Sep-12 19:00N 39°35' W 075°36'0 0.0
2017-Sep-12 18:30N 39°35' W 075°36'0 0.0
2017-Sep-12 18:00N 39°35' W 075°36'0 0.0
2017-Sep-12 17:30N 39°35' W 075°36'0 0.0
2017-Sep-12 17:00N 39°35' W 075°36'0 0.0
2017-Sep-12 16:30N 39°35' W 075°36'0 0.0
2017-Sep-12 16:00N 39°35' W 075°36'0 0.0
2017-Sep-12 15:30N 39°35' W 075°36'0 0.0
2017-Sep-12 15:00N 39°35' W 075°36'0 0.0
2017-Sep-12 14:30N 39°35' W 075°36'0 0.0
2017-Sep-12 14:00N 39°35' W 075°36'0 0.0
2017-Sep-12 13:30N 39°35' W 075°36'0 0.0
2017-Sep-12 13:00N 39°35' W 075°36'0 0.0
2017-Sep-12 12:30N 39°35' W 075°36'0 0.0
2017-Sep-12 09:15N 39°35' W 075°36'0 0.0
2017-Sep-12 09:00N 39°35' W 075°36'0 0.0
2017-Sep-12 08:30N 39°35' W 075°36'0 0.0
2017-Sep-12 08:00N 39°35' W 075°36'0 0.0
2017-Sep-12 07:30N 39°35' W 075°36'0 0.0
2017-Sep-12 07:00N 39°35' W 075°36'0 0.0
2017-Sep-12 06:30N 39°35' W 075°36'0 0.0
2017-Sep-12 06:00N 39°35' W 075°36'0 0.0
2017-Sep-12 05:30N 39°35' W 075°36'0 0.0
2017-Sep-12 05:00N 39°35' W 075°36'0 0.0
2017-Sep-12 04:30N 39°35' W 075°36'0 0.0
2017-Sep-12 04:00N 39°35' W 075°36'0 0.0
2017-Sep-12 03:30N 39°35' W 075°36'0 0.0
2017-Sep-12 03:00N 39°35' W 075°36'0 0.0
2017-Sep-12 02:30N 39°35' W 075°36'0 0.0
2017-Sep-12 02:00N 39°35' W 075°36'0 0.0
2017-Sep-12 01:30N 39°35' W 075°36'0 0.0
2017-Sep-12 01:00N 39°35' W 075°36'0 0.0
2017-Sep-12 00:30N 39°35' W 075°36'0 0.0
2017-Sep-12 00:00N 39°35' W 075°36'0 0.0
2017-Sep-11 23:30N 39°35' W 075°36'0 0.5
2017-Sep-11 23:00N 39°35' W 075°35'3 5.3
2017-Sep-11 22:31N 39°33' W 075°33'0 0.1
2017-Sep-11 22:00N 39°33' W 075°33'0 0.5
2017-Sep-11 21:30N 39°33' W 075°33'0 0.2
2017-Sep-11 21:00N 39°33' W 075°33'0 0.1
2017-Sep-11 20:30N 39°33' W 075°33'0 0.0
2017-Sep-11 20:00N 39°33' W 075°33'0 0.0
2017-Sep-11 19:30N 39°33' W 075°33'0 0.0
2017-Sep-11 19:00N 39°33' W 075°33'0 0.0
2017-Sep-11 18:30N 39°33' W 075°33'0 0.0
2017-Sep-11 18:00N 39°33' W 075°33'0 0.0
2017-Sep-11 17:30N 39°33' W 075°33'0 0.0
2017-Sep-11 17:00N 39°33' W 075°33'1 2.9
2017-Sep-11 16:30N 39°34' W 075°33'3 6.3
2017-Sep-11 16:00N 39°37' W 075°35'4 7.5
2017-Sep-11 15:31N 39°40' W 075°32'4 8.6
2017-Sep-11 15:01N 39°44' W 075°30'4 8.5
2017-Sep-11 14:30N 39°48' W 075°26'4 8.9
2017-Sep-11 14:00N 39°50' W 075°22'4 8.3
2017-Sep-11 13:30N 39°51' W 075°16'1 1.9
2017-Sep-11 12:59N 39°51' W 075°15'0 0.0
2017-Sep-11 12:29N 39°51' W 075°15'0 0.0
2017-Sep-11 11:59N 39°51' W 075°15'0 0.0
2017-Sep-11 11:29N 39°51' W 075°15'0 0.0
2017-Sep-11 10:59N 39°51' W 075°15'0 0.0
2017-Sep-11 10:29N 39°51' W 075°15'0 0.0
2017-Sep-11 09:59N 39°51' W 075°15'0 0.0
2017-Sep-11 09:29N 39°51' W 075°15'0 0.0
2017-Sep-11 08:59N 39°51' W 075°15'0 0.0
2017-Sep-11 08:29N 39°51' W 075°15'0 0.0
2017-Sep-11 07:59N 39°51' W 075°15'0 0.0
2017-Sep-11 07:29N 39°51' W 075°15'0 0.0
2017-Sep-11 06:59N 39°51' W 075°15'0 0.0
2017-Sep-11 06:29N 39°51' W 075°15'0 0.0
2017-Sep-11 05:59N 39°51' W 075°15'0 0.0
2017-Sep-11 05:29N 39°51' W 075°15'0 0.0
2017-Sep-11 04:59N 39°51' W 075°15'0 0.0
2017-Sep-11 04:29N 39°51' W 075°15'0 0.0
2017-Sep-11 03:59N 39°51' W 075°15'0 0.0
2017-Sep-11 03:29N 39°51' W 075°15'0 0.0
2017-Sep-11 02:59N 39°51' W 075°15'0 0.0
2017-Sep-11 02:29N 39°51' W 075°15'0 0.0
2017-Sep-11 01:59N 39°51' W 075°15'0 0.0
2017-Sep-11 01:29N 39°51' W 075°15'0 0.0
2017-Sep-11 00:59N 39°51' W 075°15'0 0.0
2017-Sep-11 00:29N 39°51' W 075°15'0 0.0
2017-Sep-10 23:59N 39°51' W 075°15'0 0.0
2017-Sep-10 23:26N 39°51' W 075°15'0 0.0
2017-Sep-10 22:59N 39°51' W 075°15'0 0.0
2017-Sep-10 22:29N 39°51' W 075°15'0 0.0
2017-Sep-10 21:59N 39°51' W 075°15'0 0.0
2017-Sep-10 21:29N 39°51' W 075°15'0 0.0
2017-Sep-10 20:59N 39°51' W 075°15'0 0.0
2017-Sep-10 20:29N 39°51' W 075°15'0 0.0
2017-Sep-10 19:59N 39°51' W 075°15'0 0.0
2017-Sep-10 19:29N 39°51' W 075°15'0 0.0
2017-Sep-10 18:59N 39°51' W 075°15'0 0.0
2017-Sep-10 18:29N 39°51' W 075°15'0 0.0
2017-Sep-10 17:59N 39°51' W 075°15'0 0.0
2017-Sep-10 17:29N 39°51' W 075°15'0 0.0
2017-Sep-10 16:59N 39°51' W 075°15'0 0.0
2017-Sep-10 16:29N 39°51' W 075°15'0 0.0
2017-Sep-10 15:59N 39°51' W 075°15'0 0.0
2017-Sep-10 15:29N 39°51' W 075°15'0 0.0
2017-Sep-10 14:59N 39°51' W 075°15'0 0.0
2017-Sep-10 13:59N 39°51' W 075°15'0 0.0
2017-Sep-10 13:29N 39°51' W 075°15'0 0.0
2017-Sep-10 12:59N 39°51' W 075°15'0 0.0
2017-Sep-10 12:29N 39°51' W 075°15'0 0.0
2017-Sep-10 11:59N 39°51' W 075°15'0 0.0
2017-Sep-10 11:29N 39°51' W 075°15'0 0.0
2017-Sep-10 10:59N 39°51' W 075°15'0 0.0
2017-Sep-10 10:29N 39°51' W 075°15'0 0.0
2017-Sep-10 09:59N 39°51' W 075°15'0 0.0
2017-Sep-10 09:29N 39°51' W 075°15'0 0.0
2017-Sep-10 08:59N 39°51' W 075°15'0 0.0
2017-Sep-10 08:29N 39°51' W 075°15'0 0.0
2017-Sep-10 07:59N 39°51' W 075°15'0 0.0
2017-Sep-10 07:29N 39°51' W 075°15'0 0.0
2017-Sep-10 06:59N 39°51' W 075°15'0 0.0
2017-Sep-10 06:29N 39°51' W 075°15'0 0.0
2017-Sep-10 06:00N 39°51' W 075°15'1 1.3
2017-Sep-10 05:30N 39°51' W 075°14'3 5.1
2017-Sep-10 05:00N 39°53' W 075°12'3 5.6
2017-Sep-10 04:30N 39°54' W 075°08'0 0.3
2017-Sep-10 04:00N 39°54' W 075°08'0 0.0
2017-Sep-10 03:30N 39°54' W 075°08'0 0.0
2017-Sep-10 03:00N 39°54' W 075°08'0 0.0
2017-Sep-10 02:30N 39°54' W 075°08'0 0.0
2017-Sep-10 02:00N 39°54' W 075°08'0 0.0
2017-Sep-10 01:30N 39°54' W 075°08'0 0.0
2017-Sep-10 01:00N 39°54' W 075°08'0 0.0
2017-Sep-10 00:30N 39°54' W 075°08'0 0.0
2017-Sep-10 00:00N 39°54' W 075°08'0 0.0
2017-Sep-09 23:30N 39°54' W 075°08'0 0.0
2017-Sep-09 23:00N 39°54' W 075°08'0 0.0
2017-Sep-09 22:30N 39°54' W 075°08'0 0.0
2017-Sep-09 22:01N 39°54' W 075°08'0 0.0
2017-Sep-09 21:31N 39°54' W 075°08'0 0.0
2017-Sep-09 21:00N 39°54' W 075°08'0 0.0
2017-Sep-09 20:31N 39°54' W 075°08'  

Dump ship's entire track history